Latest Weather Observations for Ngukurr AWS

IDD60801

Issued at 5:01 pm CST Tuesday 1 September 2015 (issued every 30 minutes, with the page automatically refreshed every 10 minutes)

About weather observations | Map of weather stations | Latest weather observations for NT | Other Formats
Station Details ID: 014299 Name: NGUKURR AIRPORT Lat: -14.72 Lon: 134.75 Height: 14.46 m
Data from the previous 72 hours. | See also: Recent months at Ngukurr AWS
Date/Time
CST
Temp
°C
App
Temp
°C
Dew
Point
Rel
Hum
%
Delta-T
°C
Wind Press
QNH
hPa
Press
MSL
hPa
Rain
since 9 am
mm
Dir
 
Spd
km/h
Gust
km/h
Spd
kts
Gust
kts
01/05:00pm 34.8 30.3 4.4 15 16.1 ESE 17 24 9 13 1010.1 1010.0 0.0
01/04:30pm 35.9 32.9 0.9 11 17.7 NE 6 13 3 7 1010.1 1010.0 0.0
01/04:00pm 35.7 32.7 0.7 11 17.6 NE 6 15 3 8 1010.2 1010.1 0.0
01/03:30pm 35.3 32.6 0.4 11 17.4 SE 4 13 2 7 1010.4 1010.3 0.0
01/03:00pm 36.6 33.1 1.4 11 18.0 NE 9 15 5 8 1010.9 1010.8 0.0
01/02:30pm 35.9 32.7 0.9 11 17.7 SE 7 13 4 7 1011.2 1011.1 0.0
01/02:00pm 35.8 32.4 2.0 12 17.3 ESE 9 17 5 9 1011.6 1011.5 0.0
01/01:30pm 36.0 32.8 3.3 13 17.1 ENE 9 20 5 11 1012.3 1012.2 0.0
01/01:00pm 34.9 32.0 4.4 15 16.2 NNE 9 17 5 9 1012.8 1012.7 0.0
01/12:30pm 34.0 32.2 5.5 17 15.3 NE 4 15 2 8 1013.5 1013.4 0.0
01/12:00pm 33.5 31.2 7.5 20 14.4 NNW 9 22 5 12 1014.1 1014.0 0.0
01/11:30am 33.0 30.6 7.1 20 14.2 NE 9 17 5 9 1014.8 1014.7 0.0
01/11:00am 31.6 30.1 9.2 25 12.6 N 7 13 4 7 1015.4 1015.3 0.0
01/10:30am 30.5 29.6 10.5 29 11.4 ENE 6 9 3 5 1015.8 1015.7 0.0
01/10:00am 29.2 28.6 11.7 34 10.1 NW 6 13 3 7 1016.1 1016.0 0.0
01/09:30am 27.6 28.2 13.2 41 8.5 SE 2 6 1 3 1016.2 1016.1 0.0
01/09:00am 25.9 26.3 13.7 47 7.2 NE 4 7 2 4 1016.2 1016.2 0.0
01/08:30am 24.3 25.5 15.8 59 5.1 E 4 6 2 3 1016.0 1016.0 0.0
01/08:00am 21.8 22.7 15.2 66 3.9 ESE 4 6 2 3 1015.8 1015.8 0.0
01/07:30am 19.1 20.1 14.4 74 2.7 SE 2 4 1 2 1015.4 1015.4 0.0
01/07:00am 16.0 16.8 12.4 79 2.0 CALM 0 4 0 2 1014.9 1014.9 0.0
01/06:30am 15.8 16.6 12.5 81 1.8 CALM 0 2 0 1 1014.4 1014.4 0.0
01/06:00am 16.1 16.9 12.5 79 2.0 CALM 0 0 0 0 1014.0 1014.0 0.0
01/05:30am 16.3 16.8 11.7 74 2.5 CALM 0 0 0 0 1013.6 1013.6 0.0
01/05:00am 16.9 17.4 14.0 83 1.6 S 4 6 2 3 1013.4 1013.4 0.0
01/04:30am 16.2 16.4 10.7 70 2.9 CALM 0 0 0 0 1013.3 1013.3 0.0
01/04:00am 16.5 16.7 10.4 67 3.2 CALM 0 0 0 0 1013.3 1013.3 0.0
01/03:30am 17.0 17.4 11.3 69 3.1 CALM 0 0 0 0 1013.3 1013.3 0.0
01/03:00am 17.3 17.6 10.9 66 3.4 CALM 0 0 0 0 1013.3 1013.3 0.0
01/02:30am 17.8 17.7 10.9 64 3.7 SSW 2 4 1 2 1013.5 1013.5 0.0
01/02:00am 18.8 19.2 11.4 62 4.0 CALM 0 0 0 0 1013.7 1013.7 0.0
01/01:30am 19.5 18.8 11.3 59 4.5 WNW 6 11 3 6 1014.1 1014.1 0.0
01/01:00am 19.9 20.3 11.1 57 4.8 CALM 0 4 0 2 1013.9 1013.9 0.0
01/12:30am 20.2 20.5 10.9 55 5.1 CALM 0 0 0 0 1014.1 1014.1 0.0
01/12:00am 22.5 22.3 11.9 51 6.0 NNE 4 7 2 4 1014.2 1014.2 0.0
 
Date/Time
CST
Temp
°C
App
Temp
°C
Dew
Point
Rel
Hum
%
Delta-T
°C
Wind Press
QNH
hPa
Press
MSL
hPa
Rain
since 9 am
mm
Dir
 
Spd
km/h
Gust
km/h
Spd
kts
Gust
kts
31/11:30pm 21.3 21.3 9.9 48 6.1 CALM 0 0 0 0 1014.4 1014.4 0.0
31/11:00pm 22.3 21.5 9.5 44 6.9 ENE 4 6 2 3 1014.4 1014.4 0.0
31/10:30pm 22.5 21.9 9.0 42 7.2 ESE 2 4 1 2 1014.3 1014.3 0.0
31/10:00pm 23.4 22.2 7.9 37 8.2 ESE 4 4 2 2 1014.3 1014.3 0.0
31/09:30pm 25.0 23.4 8.1 34 9.0 ENE 6 9 3 5 1014.3 1014.3 0.0
31/09:00pm 25.7 24.1 7.8 32 9.5 ENE 6 9 3 5 1014.2 1014.2 0.0
31/08:30pm 26.6 24.5 8.1 31 10.0 E 9 13 5 7 1013.7 1013.7 0.0
31/08:00pm 27.2 25.1 8.1 30 10.3 E 9 15 5 8 1013.4 1013.4 0.0
31/07:30pm 27.9 25.2 7.2 27 11.1 E 11 19 6 10 1013.0 1013.0 0.0
31/07:00pm 28.8 26.1 7.4 26 11.5 E 11 17 6 9 1012.5 1012.5 0.0
31/06:30pm 29.8 26.0 7.7 25 12.0 E 17 24 9 13 1012.2 1012.2 0.0
31/06:00pm 31.3 27.3 8.3 24 12.7 E 19 32 10 17 1011.7 1011.7 0.0
31/05:30pm 33.1 29.5 8.5 22 13.8 ENE 17 24 9 13 1011.5 1011.5 0.0
31/05:00pm 34.2 31.8 8.8 21 14.4 ENE 11 19 6 10 1011.3 1011.3 0.0
31/04:30pm 34.8 32.6 7.8 19 15.1 ESE 9 19 5 10 1011.3 1011.3 0.0
31/04:00pm 35.6 33.1 8.4 19 15.4 NE 11 24 6 13 1011.3 1011.3 0.0
31/03:30pm 35.8 33.6 7.8 18 15.7 ESE 9 15 5 8 1011.6 1011.6 0.0
31/03:00pm 35.2 33.4 7.3 18 15.5 N 6 9 3 5 1011.9 1011.9 0.0
31/02:30pm 35.6 33.0 7.6 18 15.7 ESE 11 24 6 13 1012.3 1012.3 0.0
31/02:00pm 34.8 31.8 9.3 21 14.6 ENE 15 24 8 13 1012.8 1012.8 0.0
31/01:30pm 34.8 32.7 9.9 22 14.4 ESE 11 19 6 10 1013.4 1013.4 0.0
31/01:00pm 34.3 32.7 11.4 25 13.5 ESE 11 19 6 10 1014.0 1014.0 0.0
31/12:30pm 33.4 32.4 12.4 28 12.5 ENE 9 17 5 9 1014.7 1014.7 0.0
31/12:00pm 32.0 30.8 12.8 31 11.4 E 11 20 6 11 1015.2 1015.2 0.0
31/11:30am 31.9 31.1 14.1 34 10.8 E 11 19 6 10 1015.9 1015.9 0.0
31/11:00am 30.1 31.7 16.9 45 8.3 WNW 4 7 2 4 1016.4 1016.4 0.0
31/10:30am 28.7 30.4 17.2 49 7.2 NNW 4 7 2 4 1016.9 1016.9 0.0
31/10:00am 28.3 30.3 18.7 56 6.2 ESE 6 9 3 5 1017.2 1017.2 0.0
31/09:30am 26.4 28.8 18.8 63 4.9 SE 4 6 2 3 1017.2 1017.2 0.0
31/09:00am 25.6 28.1 19.0 67 4.2 ENE 4 7 2 4 1017.2 1017.2 0.0
31/08:30am 24.6 26.6 18.8 70 3.7 ESE 6 7 3 4 1016.9 1016.9 0.0
31/08:00am 22.9 24.9 18.7 77 2.7 ESE 6 7 3 4 1016.6 1016.6 0.0
31/07:30am 20.3 23.2 18.2 88 1.3 CALM 0 0 0 0 1016.3 1016.3 0.0
31/07:00am 17.6 19.5 16.8 95 0.5 SSW 2 2 1 1 1015.9 1015.9 0.0
31/06:30am 17.2 18.9 16.1 93 0.6 SSW 2 4 1 2 1015.5 1015.5 0.0
31/06:00am 17.8 19.6 16.5 92 0.8 NNW 2 2 1 1 1015.2 1015.2 0.0
31/05:30am 18.4 20.9 17.2 93 0.7 CALM 0 4 0 2 1015.0 1015.0 0.0
31/05:00am 18.8 21.4 17.5 92 0.8 CALM 0 2 0 1 1015.0 1015.0 0.0
31/04:30am 19.2 21.0 17.5 90 1.0 NW 4 4 2 2 1015.1 1015.1 0.0
31/04:00am 20.3 22.5 18.4 89 1.2 SE 4 7 2 4 1015.0 1015.0 0.0
31/03:30am 20.5 22.1 18.3 87 1.4 SE 7 11 4 6 1014.8 1014.8 0.0
31/03:00am 20.1 21.5 17.3 84 1.7 SE 6 6 3 3 1014.9 1014.9 0.0
31/02:30am 20.5 22.0 17.5 83 1.8 SSE 6 7 3 4 1014.9 1014.9 0.0
31/02:00am 20.3 20.9 16.9 81 2.1 SSW 9 15 5 8 1015.1 1015.1 0.0
31/01:30am 19.4 20.8 15.5 78 2.3 SE 2 4 1 2 1014.9 1014.9 0.0
31/01:00am 20.3 22.3 16.1 77 2.5 CALM 0 2 0 1 1015.1 1015.1 0.0
31/12:30am 20.8 22.7 16.6 77 2.5 ESE 2 4 1 2 1015.4 1015.4 0.0
31/12:00am 21.5 23.8 16.7 74 2.9 CALM 0 2 0 1 1015.6 1015.6 0.0
 
Date/Time
CST
Temp
°C
App
Temp
°C
Dew
Point
Rel
Hum
%
Delta-T
°C
Wind Press
QNH
hPa
Press
MSL
hPa
Rain
since 9 am
mm
Dir
 
Spd
km/h
Gust
km/h
Spd
kts
Gust
kts
30/11:30pm 22.5 24.1 16.8 70 3.5 ENE 4 6 2 3 1015.8 1015.8 0.0
30/11:00pm 23.2 24.7 16.7 67 4.0 E 4 6 2 3 1015.8 1015.8 0.0
30/10:30pm 23.5 24.2 15.5 60 4.8 E 6 6 3 3 1015.8 1015.8 0.0
30/10:00pm 24.1 24.5 14.8 56 5.5 E 6 9 3 5 1015.8 1015.8 0.0
30/09:30pm 24.6 24.5 13.2 49 6.6 ENE 6 7 3 4 1015.6 1015.6 0.0
30/09:00pm 25.2 25.1 12.1 44 7.5 E 4 7 2 4 1015.5 1015.5 0.0
30/08:30pm 25.7 25.2 10.7 39 8.4 E 4 9 2 5 1015.3 1015.3 0.0
30/08:00pm 26.5 25.2 9.8 35 9.3 ENE 7 9 4 5 1014.9 1014.9 0.0
30/07:30pm 27.2 25.7 9.1 32 9.9 ENE 7 13 4 7 1014.6 1014.6 0.0
30/07:00pm 27.9 26.3 8.7 30 10.5 E 7 9 4 5 1014.2 1014.2 0.0
30/06:30pm 29.0 26.1 8.1 27 11.4 E 13 19 7 10 1013.8 1013.8 0.0
30/06:00pm 30.0 26.4 8.4 26 11.9 E 17 26 9 14 1013.5 1013.5 0.0
30/05:30pm 31.1 27.1 8.2 24 12.6 E 19 30 10 16 1013.4 1013.4 0.0
30/05:00pm 31.8 27.6 7.5 22 13.3 E 19 28 10 15 1013.3 1013.3 0.0
30/04:30pm 32.2 27.6 6.4 20 13.9 E 20 32 11 17 1013.3 1013.3 0.0
30/04:00pm 32.8 28.2 8.3 22 13.7 ENE 22 30 12 16 1013.3 1013.3 0.0
30/03:30pm 33.1 28.2 7.1 20 14.2 ENE 22 33 12 18 1013.3 1013.3 0.0
30/03:00pm 33.3 28.7 8.0 21 14.1 ENE 22 33 12 18 1013.5 1013.5 0.0
30/02:30pm 34.2 29.9 8.0 20 14.6 E 20 35 11 19 1013.9 1013.9 0.0
30/02:00pm 33.8 29.3 7.0 19 14.7 ENE 20 30 11 16 1014.2 1014.2 0.0
30/01:30pm 34.6 30.1 6.8 18 15.3 E 20 37 11 20 1014.7 1014.7 0.0
30/01:00pm 34.4 30.4 6.7 18 15.2 ESE 17 35 9 19 1015.0 1015.0 0.0
30/12:30pm 34.4 30.6 7.5 19 14.9 E 17 30 9 16 1015.6 1015.6 0.0
30/12:00pm 33.7 29.4 6.9 19 14.7 ESE 19 28 10 15 1016.1 1016.1 0.0
30/11:30am 33.5 30.5 7.5 20 14.3 SE 13 24 7 13 1016.7 1016.7 0.0
30/11:00am 32.3 28.6 7.9 22 13.5 SE 17 26 9 14 1017.3 1017.3 0.0
30/10:30am 31.5 27.8 7.9 23 13.0 ESE 17 28 9 15 1017.7 1017.7 0.0
30/10:00am 30.2 26.5 8.0 25 12.2 ESE 17 26 9 14 1017.8 1017.8 0.0
30/09:30am 29.7 26.3 9.3 28 11.4 ESE 17 26 9 14 1017.7 1017.7 0.0
30/09:00am 27.9 25.6 10.6 34 9.8 SE 13 19 7 10 1017.5 1017.5 0.0
30/08:30am 25.9 25.4 12.7 44 7.6 SE 7 11 4 6 1017.5 1017.5 0.0
30/08:00am 23.6 24.9 15.1 59 5.1 ENE 2 4 1 2 1017.4 1017.4 0.0
30/07:30am 20.6 22.4 15.4 72 3.1 CALM 0 0 0 0 1017.1 1017.1 0.0
30/07:00am 17.6 19.1 14.7 83 1.7 CALM 0 2 0 1 1016.8 1016.8 0.0
30/06:30am 17.5 18.7 14.8 84 1.6 NW 2 4 1 2 1016.4 1016.4 0.0
30/06:00am 17.4 18.8 14.3 82 1.8 CALM 0 0 0 0 1016.0 1016.0 0.0
30/05:30am 18.0 19.5 14.7 81 1.9 CALM 0 0 0 0 1015.7 1015.7 0.0
30/05:00am 18.4 19.6 14.9 80 2.0 S 2 4 1 2 1015.4 1015.4 0.0
30/04:30am 18.4 19.8 14.5 78 2.3 CALM 0 6 0 3 1015.3 1015.3 0.0
30/04:00am 18.7 20.1 14.4 76 2.5 CALM 0 0 0 0 1015.3 1015.3 0.0
30/03:30am 18.7 20.2 14.6 77 2.4 CALM 0 0 0 0 1015.4 1015.4 0.0
30/03:00am 19.3 21.1 15.6 79 2.2 CALM 0 0 0 0 1015.4 1015.4 0.0
30/02:30am 19.4 21.0 14.9 75 2.6 CALM 0 0 0 0 1015.5 1015.5 0.0
30/02:00am 19.7 21.1 14.3 71 3.1 CALM 0 0 0 0 1015.6 1015.6 0.0
30/01:30am 20.1 21.3 14.9 72 3.0 ESE 2 4 1 2 1015.8 1015.8 0.0
30/01:00am 20.3 21.9 14.9 71 3.2 CALM 0 0 0 0 1016.1 1016.1 0.0
30/12:30am 20.7 22.0 14.1 66 3.8 CALM 0 0 0 0 1016.3 1016.3 0.0
30/12:00am 21.1 21.2 14.0 64 4.1 S 6 6 3 3 1016.4 1016.4 0.0
 
Date/Time
CST
Temp
°C
App
Temp
°C
Dew
Point
Rel
Hum
%
Delta-T
°C
Wind Press
QNH
hPa
Press
MSL
hPa
Rain
since 9 am
mm
Dir
 
Spd
km/h
Gust
km/h
Spd
kts
Gust
kts
29/11:30pm 21.9 22.0 14.5 63 4.3 SSW 7 11 4 6 1016.3 1016.3 0.0
29/11:00pm 21.9 22.3 13.8 60 4.7 NNE 4 4 2 2 1015.9 1015.9 0.0
29/10:30pm 22.4 22.7 13.5 57 5.1 NE 4 4 2 2 1016.0 1016.0 0.0
29/10:00pm 23.2 23.7 13.9 56 5.4 E 4 6 2 3 1015.9 1015.9 0.0
29/09:30pm 23.8 24.0 13.1 51 6.2 E 4 4 2 2 1016.0 1016.0 0.0
29/09:00pm 24.8 25.1 13.4 49 6.6 ESE 4 6 2 3 1016.0 1016.0 0.0
29/08:30pm 25.9 25.5 13.1 45 7.5 E 7 11 4 6 1015.9 1015.9 0.0
29/08:00pm 26.3 26.2 13.4 45 7.6 ENE 6 7 3 4 1015.5 1015.5 0.0
29/07:30pm 27.2 26.1 13.2 42 8.2 ENE 11 15 6 8 1015.4 1015.4 0.0
29/07:00pm 27.8 26.1 12.6 39 8.9 ENE 13 20 7 11 1014.9 1014.9 0.0
29/06:30pm 28.6 26.0 10.8 33 10.1 ENE 15 20 8 11 1014.7 1014.7 0.0
29/06:00pm 30.0 27.6 11.5 32 10.7 E 15 22 8 12 1014.4 1014.4 0.0
29/05:30pm 30.9 27.7 11.3 30 11.4 E 19 26 10 14 1014.1 1014.1 0.0

Other Formats:

Comma delimited format used in spreadsheet applications
http://www.bom.gov.au/fwo/IDD60801/IDD60801.94106.axf

JavaScript Object Notation format (JSON) in row-major order
http://www.bom.gov.au/fwo/IDD60801/IDD60801.94106.json